Main page
METAR-TAF:

METAR-TAF

Airports :

Cuneo International Airport

Cuneo, Italy

latitude: 44-32-47N, longitude: 007-37-20E, elevation: 386 m

Current weather observation

The report was made 3 hours and 21 minutes ago, at 20:50 UTC
Wind 4 kt from the Northeast
Temperature 5°C
Humidity 100%
Pressure 1006 hPa
Visibility: 8000 m
Few clouds at a height of 600 ft
Scattered clouds at a height of 2000 ft
rain

METAR: LIMZ 172050Z 05004KT 8000 RA FEW006 SCT020 05/05 Q1006

Time: 01:11 (00:11 UTC)

Forecast

The report was made 7 hours and 11 minutes ago, at 17:00 UTC
Forecast valid from 17 at 18 UTC to 18 at 18 UTC
Wind 5 kt from variable directions
Visibility: 7000 m
Scattered clouds at a height of 2500 ft

TAF: LIMZ 171700Z 1718/1818 VRB05KT 7000 SCT025

Weather observations and forecasts of more than 4000 airports (METAR and TAF reports).

The available stations are represented by yellow and red dots on the map.

Hover mouse over dot to see the name of the station.

Then click to see weather observations and forecasts.

To change the map : click on the green buttons with a black cross to zoom in, on the green button with a dash to zoom out, or on the green arrows for adjacent maps.


METAR-TAF: